Seneca, South Dakota
Current Conditions -  °F | °C
As of 8:52 PM on Thursday 27 Nov 2014 (Local Time) from KMBG Reporting Station
Few Clouds Few Clouds  
Wind Chill: -15°   Ceiling: Unl
Heat Index: -8°   Visibility: 10mi
Dew Point: -11°   Wind: 10mph
Humidity: 81%   Direction: 130°SE
Pressure: 29.9"   Gusts: NA
Location:  45.06°N, 99.51°W
Report Text: KMBG 280252Z AUTO 13009KT 10SM FEW090 M08/M11 A2990 RMK AO2 SLP161 T10831111 56016
Loading
Personal Weather Stations






























Interactive Weather Map New forecast layout! Learn more

10-Day Weather Forecast

Advertisements
Track Severe Weather on mobile